sensor_id;sensor_type;location;lat;lon;timestamp;P1;durP1;ratioP1;P2;durP2;ratioP2
27857;SDS011;16852;51.446;6.528;2024-02-21T00:01:28;21.13;;;11.48;;
27857;SDS011;16852;51.446;6.528;2024-02-21T00:03:30;31.27;;;12.15;;
27857;SDS011;16852;51.446;6.528;2024-02-21T00:05:30;26.17;;;11.75;;
27857;SDS011;16852;51.446;6.528;2024-02-21T00:07:31;29.70;;;13.05;;
27857;SDS011;16852;51.446;6.528;2024-02-21T00:09:31;23.40;;;11.10;;
27857;SDS011;16852;51.446;6.528;2024-02-21T00:11:32;30.73;;;13.32;;
27857;SDS011;16852;51.446;6.528;2024-02-21T00:13:33;24.88;;;11.63;;
27857;SDS011;16852;51.446;6.528;2024-02-21T00:15:33;29.25;;;12.40;;
27857;SDS011;16852;51.446;6.528;2024-02-21T00:17:34;22.60;;;11.90;;
27857;SDS011;16852;51.446;6.528;2024-02-21T00:19:34;24.17;;;10.98;;
27857;SDS011;16852;51.446;6.528;2024-02-21T00:21:35;36.17;;;13.75;;
27857;SDS011;16852;51.446;6.528;2024-02-21T00:23:36;31.63;;;13.45;;
27857;SDS011;16852;51.446;6.528;2024-02-21T00:25:36;22.52;;;11.65;;
27857;SDS011;16852;51.446;6.528;2024-02-21T00:27:37;26.20;;;11.07;;
27857;SDS011;16852;51.446;6.528;2024-02-21T00:29:39;24.95;;;11.50;;
27857;SDS011;16852;51.446;6.528;2024-02-21T00:31:39;31.30;;;13.15;;
27857;SDS011;16852;51.446;6.528;2024-02-21T00:33:40;27.30;;;12.05;;
27857;SDS011;16852;51.446;6.528;2024-02-21T00:35:40;28.52;;;12.50;;
27857;SDS011;16852;51.446;6.528;2024-02-21T00:37:41;29.50;;;13.38;;
27857;SDS011;16852;51.446;6.528;2024-02-21T00:39:41;25.70;;;12.10;;
27857;SDS011;16852;51.446;6.528;2024-02-21T00:41:42;27.63;;;12.05;;
27857;SDS011;16852;51.446;6.528;2024-02-21T00:43:43;22.25;;;11.52;;
27857;SDS011;16852;51.446;6.528;2024-02-21T00:45:43;26.75;;;12.88;;
27857;SDS011;16852;51.446;6.528;2024-02-21T00:47:44;21.67;;;11.05;;
27857;SDS011;16852;51.446;6.528;2024-02-21T00:49:44;22.67;;;10.23;;
27857;SDS011;16852;51.446;6.528;2024-02-21T00:51:45;29.60;;;13.43;;
27857;SDS011;16852;51.446;6.528;2024-02-21T00:53:46;20.83;;;10.02;;
27857;SDS011;16852;51.446;6.528;2024-02-21T00:55:47;30.05;;;12.70;;
27857;SDS011;16852;51.446;6.528;2024-02-21T00:57:48;27.10;;;11.60;;
27857;SDS011;16852;51.446;6.528;2024-02-21T00:59:48;31.90;;;11.93;;
27857;SDS011;16852;51.446;6.528;2024-02-21T01:01:49;27.27;;;12.43;;
27857;SDS011;16852;51.446;6.528;2024-02-21T01:03:49;30.75;;;13.32;;
27857;SDS011;16852;51.446;6.528;2024-02-21T01:05:53;28.13;;;11.85;;
27857;SDS011;16852;51.446;6.528;2024-02-21T01:07:53;24.63;;;11.35;;
27857;SDS011;16852;51.446;6.528;2024-02-21T01:09:54;32.08;;;12.50;;
27857;SDS011;16852;51.446;6.528;2024-02-21T01:11:55;34.45;;;12.30;;
27857;SDS011;16852;51.446;6.528;2024-02-21T01:13:55;25.05;;;11.52;;
27857;SDS011;16852;51.446;6.528;2024-02-21T01:15:56;29.65;;;11.50;;
27857;SDS011;16852;51.446;6.528;2024-02-21T01:17:56;19.50;;;9.68;;
27857;SDS011;16852;51.446;6.528;2024-02-21T01:19:57;22.02;;;10.07;;
27857;SDS011;16852;51.446;6.528;2024-02-21T01:21:58;26.98;;;11.27;;
27857;SDS011;16852;51.446;6.528;2024-02-21T01:23:58;24.50;;;11.88;;
27857;SDS011;16852;51.446;6.528;2024-02-21T01:25:59;21.00;;;10.25;;
27857;SDS011;16852;51.446;6.528;2024-02-21T01:27:59;22.65;;;10.15;;
27857;SDS011;16852;51.446;6.528;2024-02-21T01:30:00;25.13;;;11.43;;
27857;SDS011;16852;51.446;6.528;2024-02-21T01:32:01;20.50;;;9.85;;
27857;SDS011;16852;51.446;6.528;2024-02-21T01:34:01;19.08;;;8.95;;
27857;SDS011;16852;51.446;6.528;2024-02-21T01:36:02;20.90;;;9.90;;
27857;SDS011;16852;51.446;6.528;2024-02-21T01:38:03;29.45;;;11.80;;
27857;SDS011;16852;51.446;6.528;2024-02-21T01:40:04;23.20;;;10.10;;
27857;SDS011;16852;51.446;6.528;2024-02-21T01:42:05;24.70;;;9.93;;
27857;SDS011;16852;51.446;6.528;2024-02-21T01:44:06;24.50;;;10.43;;
27857;SDS011;16852;51.446;6.528;2024-02-21T01:46:07;18.35;;;8.68;;
27857;SDS011;16852;51.446;6.528;2024-02-21T01:48:07;18.33;;;9.45;;
27857;SDS011;16852;51.446;6.528;2024-02-21T01:50:08;24.90;;;9.98;;
27857;SDS011;16852;51.446;6.528;2024-02-21T01:52:10;23.67;;;10.65;;
27857;SDS011;16852;51.446;6.528;2024-02-21T01:54:17;21.20;;;9.68;;
27857;SDS011;16852;51.446;6.528;2024-02-21T01:56:18;22.70;;;9.30;;
27857;SDS011;16852;51.446;6.528;2024-02-21T01:58:20;18.52;;;9.02;;
27857;SDS011;16852;51.446;6.528;2024-02-21T02:00:21;22.80;;;9.95;;
27857;SDS011;16852;51.446;6.528;2024-02-21T02:02:23;23.25;;;9.93;;
27857;SDS011;16852;51.446;6.528;2024-02-21T02:04:24;20.65;;;8.80;;
27857;SDS011;16852;51.446;6.528;2024-02-21T02:06:25;16.23;;;8.02;;
27857;SDS011;16852;51.446;6.528;2024-02-21T02:08:26;18.80;;;9.18;;
27857;SDS011;16852;51.446;6.528;2024-02-21T02:10:27;21.85;;;9.30;;
27857;SDS011;16852;51.446;6.528;2024-02-21T02:12:27;20.10;;;9.05;;
27857;SDS011;16852;51.446;6.528;2024-02-21T02:14:28;26.45;;;9.18;;
27857;SDS011;16852;51.446;6.528;2024-02-21T02:16:28;19.80;;;8.07;;
27857;SDS011;16852;51.446;6.528;2024-02-21T02:18:29;17.55;;;8.75;;
27857;SDS011;16852;51.446;6.528;2024-02-21T02:20:30;16.90;;;8.68;;
27857;SDS011;16852;51.446;6.528;2024-02-21T02:22:30;19.02;;;7.88;;
27857;SDS011;16852;51.446;6.528;2024-02-21T02:24:35;18.05;;;8.35;;
27857;SDS011;16852;51.446;6.528;2024-02-21T02:26:35;23.25;;;8.90;;
27857;SDS011;16852;51.446;6.528;2024-02-21T02:28:36;20.23;;;8.07;;
27857;SDS011;16852;51.446;6.528;2024-02-21T02:30:36;18.17;;;8.25;;
27857;SDS011;16852;51.446;6.528;2024-02-21T02:32:37;16.15;;;8.30;;
27857;SDS011;16852;51.446;6.528;2024-02-21T02:34:38;18.92;;;8.80;;
27857;SDS011;16852;51.446;6.528;2024-02-21T02:36:38;16.60;;;7.75;;
27857;SDS011;16852;51.446;6.528;2024-02-21T02:38:39;16.02;;;7.35;;
27857;SDS011;16852;51.446;6.528;2024-02-21T02:40:40;19.90;;;8.82;;
27857;SDS011;16852;51.446;6.528;2024-02-21T02:42:42;21.10;;;8.80;;
27857;SDS011;16852;51.446;6.528;2024-02-21T02:44:42;15.88;;;7.72;;
27857;SDS011;16852;51.446;6.528;2024-02-21T02:46:43;22.98;;;9.48;;
27857;SDS011;16852;51.446;6.528;2024-02-21T02:48:43;18.98;;;7.93;;
27857;SDS011;16852;51.446;6.528;2024-02-21T02:50:44;19.80;;;8.85;;
27857;SDS011;16852;51.446;6.528;2024-02-21T02:52:46;24.85;;;8.82;;
27857;SDS011;16852;51.446;6.528;2024-02-21T02:54:46;21.23;;;8.43;;
27857;SDS011;16852;51.446;6.528;2024-02-21T02:56:51;22.30;;;7.93;;
27857;SDS011;16852;51.446;6.528;2024-02-21T02:58:52;20.10;;;8.15;;
27857;SDS011;16852;51.446;6.528;2024-02-21T03:00:53;14.35;;;7.10;;
27857;SDS011;16852;51.446;6.528;2024-02-21T03:02:53;20.02;;;8.38;;
27857;SDS011;16852;51.446;6.528;2024-02-21T03:04:54;19.30;;;8.50;;
27857;SDS011;16852;51.446;6.528;2024-02-21T03:06:54;21.38;;;9.15;;
27857;SDS011;16852;51.446;6.528;2024-02-21T03:08:55;19.58;;;8.38;;
27857;SDS011;16852;51.446;6.528;2024-02-21T03:10:56;18.77;;;7.60;;
27857;SDS011;16852;51.446;6.528;2024-02-21T03:12:56;18.45;;;7.93;;
27857;SDS011;16852;51.446;6.528;2024-02-21T03:14:57;20.63;;;8.27;;
27857;SDS011;16852;51.446;6.528;2024-02-21T03:16:58;15.20;;;7.53;;
27857;SDS011;16852;51.446;6.528;2024-02-21T03:18:59;24.00;;;8.65;;
27857;SDS011;16852;51.446;6.528;2024-02-21T03:21:00;18.02;;;7.97;;
27857;SDS011;16852;51.446;6.528;2024-02-21T03:23:00;16.33;;;7.30;;
27857;SDS011;16852;51.446;6.528;2024-02-21T03:25:01;16.05;;;6.90;;
27857;SDS011;16852;51.446;6.528;2024-02-21T03:27:02;21.13;;;8.05;;
27857;SDS011;16852;51.446;6.528;2024-02-21T03:29:03;14.15;;;6.75;;
27857;SDS011;16852;51.446;6.528;2024-02-21T03:31:04;10.27;;;6.20;;
27857;SDS011;16852;51.446;6.528;2024-02-21T03:33:04;17.40;;;6.97;;
27857;SDS011;16852;51.446;6.528;2024-02-21T03:35:05;18.75;;;7.45;;
27857;SDS011;16852;51.446;6.528;2024-02-21T03:37:06;20.60;;;7.43;;
27857;SDS011;16852;51.446;6.528;2024-02-21T03:39:06;16.45;;;6.75;;
27857;SDS011;16852;51.446;6.528;2024-02-21T03:41:09;13.57;;;6.20;;
27857;SDS011;16852;51.446;6.528;2024-02-21T03:43:09;20.27;;;7.53;;
27857;SDS011;16852;51.446;6.528;2024-02-21T03:45:10;15.95;;;6.88;;
27857;SDS011;16852;51.446;6.528;2024-02-21T03:47:10;13.65;;;6.50;;
27857;SDS011;16852;51.446;6.528;2024-02-21T03:49:11;16.40;;;7.53;;
27857;SDS011;16852;51.446;6.528;2024-02-21T03:51:12;19.38;;;6.93;;
27857;SDS011;16852;51.446;6.528;2024-02-21T03:53:12;15.82;;;7.15;;
27857;SDS011;16852;51.446;6.528;2024-02-21T03:55:13;15.48;;;7.35;;
27857;SDS011;16852;51.446;6.528;2024-02-21T03:57:13;14.55;;;6.72;;
27857;SDS011;16852;51.446;6.528;2024-02-21T03:59:14;16.33;;;7.07;;
27857;SDS011;16852;51.446;6.528;2024-02-21T04:01:15;17.40;;;6.45;;
27857;SDS011;16852;51.446;6.528;2024-02-21T04:03:16;16.05;;;6.97;;
27857;SDS011;16852;51.446;6.528;2024-02-21T04:05:17;15.77;;;7.15;;
27857;SDS011;16852;51.446;6.528;2024-02-21T04:07:17;21.52;;;7.63;;
27857;SDS011;16852;51.446;6.528;2024-02-21T04:09:18;13.13;;;6.18;;
27857;SDS011;16852;51.446;6.528;2024-02-21T04:11:18;16.65;;;6.72;;
27857;SDS011;16852;51.446;6.528;2024-02-21T04:13:19;15.52;;;6.45;;
27857;SDS011;16852;51.446;6.528;2024-02-21T04:15:20;14.65;;;6.57;;
27857;SDS011;16852;51.446;6.528;2024-02-21T04:17:20;21.63;;;6.93;;
27857;SDS011;16852;51.446;6.528;2024-02-21T04:19:21;12.07;;;5.70;;
27857;SDS011;16852;51.446;6.528;2024-02-21T04:21:21;15.50;;;6.82;;
27857;SDS011;16852;51.446;6.528;2024-02-21T04:23:22;13.48;;;5.78;;
27857;SDS011;16852;51.446;6.528;2024-02-21T04:25:22;13.82;;;6.60;;
27857;SDS011;16852;51.446;6.528;2024-02-21T04:27:23;14.20;;;6.53;;
27857;SDS011;16852;51.446;6.528;2024-02-21T04:29:23;16.23;;;6.38;;
27857;SDS011;16852;51.446;6.528;2024-02-21T04:31:24;13.25;;;5.60;;
27857;SDS011;16852;51.446;6.528;2024-02-21T04:33:25;11.50;;;5.28;;
27857;SDS011;16852;51.446;6.528;2024-02-21T04:35:25;13.20;;;6.28;;
27857;SDS011;16852;51.446;6.528;2024-02-21T04:37:26;16.10;;;6.35;;
27857;SDS011;16852;51.446;6.528;2024-02-21T04:39:26;12.57;;;4.82;;
27857;SDS011;16852;51.446;6.528;2024-02-21T04:41:27;11.15;;;5.53;;
27857;SDS011;16852;51.446;6.528;2024-02-21T04:43:28;9.25;;;4.72;;
27857;SDS011;16852;51.446;6.528;2024-02-21T04:45:28;12.93;;;4.32;;
27857;SDS011;16852;51.446;6.528;2024-02-21T04:47:29;12.32;;;5.82;;
27857;SDS011;16852;51.446;6.528;2024-02-21T04:49:29;10.98;;;5.03;;
27857;SDS011;16852;51.446;6.528;2024-02-21T04:51:30;12.60;;;5.53;;
27857;SDS011;16852;51.446;6.528;2024-02-21T04:53:30;10.57;;;4.68;;
27857;SDS011;16852;51.446;6.528;2024-02-21T04:55:31;13.68;;;5.60;;
27857;SDS011;16852;51.446;6.528;2024-02-21T04:57:32;12.30;;;5.15;;
27857;SDS011;16852;51.446;6.528;2024-02-21T04:59:32;10.82;;;4.82;;
27857;SDS011;16852;51.446;6.528;2024-02-21T05:01:35;10.45;;;4.50;;
27857;SDS011;16852;51.446;6.528;2024-02-21T05:03:35;11.38;;;4.93;;
27857;SDS011;16852;51.446;6.528;2024-02-21T05:05:36;10.90;;;5.05;;
27857;SDS011;16852;51.446;6.528;2024-02-21T05:07:36;10.93;;;5.07;;
27857;SDS011;16852;51.446;6.528;2024-02-21T05:09:37;13.38;;;5.03;;
27857;SDS011;16852;51.446;6.528;2024-02-21T05:11:38;11.65;;;4.57;;
27857;SDS011;16852;51.446;6.528;2024-02-21T05:13:38;10.23;;;4.70;;
27857;SDS011;16852;51.446;6.528;2024-02-21T05:15:39;9.85;;;4.50;;
27857;SDS011;16852;51.446;6.528;2024-02-21T05:17:40;11.65;;;5.43;;
27857;SDS011;16852;51.446;6.528;2024-02-21T05:19:40;13.10;;;5.38;;
27857;SDS011;16852;51.446;6.528;2024-02-21T05:21:41;13.60;;;5.60;;
27857;SDS011;16852;51.446;6.528;2024-02-21T05:23:41;10.73;;;4.63;;
27857;SDS011;16852;51.446;6.528;2024-02-21T05:25:42;10.30;;;4.78;;
27857;SDS011;16852;51.446;6.528;2024-02-21T05:27:43;13.77;;;5.35;;
27857;SDS011;16852;51.446;6.528;2024-02-21T05:29:43;12.80;;;4.60;;
27857;SDS011;16852;51.446;6.528;2024-02-21T05:33:50;11.30;;;5.65;;
27857;SDS011;16852;51.446;6.528;2024-02-21T05:35:51;11.25;;;5.28;;
27857;SDS011;16852;51.446;6.528;2024-02-21T05:37:52;15.00;;;5.47;;
27857;SDS011;16852;51.446;6.528;2024-02-21T05:39:52;7.50;;;4.15;;
27857;SDS011;16852;51.446;6.528;2024-02-21T05:41:53;10.15;;;4.40;;
27857;SDS011;16852;51.446;6.528;2024-02-21T05:43:53;13.15;;;4.90;;
27857;SDS011;16852;51.446;6.528;2024-02-21T05:45:54;14.07;;;5.07;;
27857;SDS011;16852;51.446;6.528;2024-02-21T05:47:55;12.85;;;4.82;;
27857;SDS011;16852;51.446;6.528;2024-02-21T05:49:57;12.40;;;5.07;;
27857;SDS011;16852;51.446;6.528;2024-02-21T05:51:57;11.02;;;4.78;;
27857;SDS011;16852;51.446;6.528;2024-02-21T05:53:58;9.98;;;4.38;;
27857;SDS011;16852;51.446;6.528;2024-02-21T05:55:58;12.27;;;4.80;;
27857;SDS011;16852;51.446;6.528;2024-02-21T05:57:59;15.00;;;5.07;;
27857;SDS011;16852;51.446;6.528;2024-02-21T06:00:00;10.23;;;5.03;;
27857;SDS011;16852;51.446;6.528;2024-02-21T06:02:00;11.90;;;4.97;;
27857;SDS011;16852;51.446;6.528;2024-02-21T06:06:04;12.55;;;5.78;;
27857;SDS011;16852;51.446;6.528;2024-02-21T06:08:05;10.02;;;5.30;;
27857;SDS011;16852;51.446;6.528;2024-02-21T06:10:06;10.85;;;4.85;;
27857;SDS011;16852;51.446;6.528;2024-02-21T06:12:07;12.40;;;5.35;;
27857;SDS011;16852;51.446;6.528;2024-02-21T06:14:08;11.35;;;5.60;;
27857;SDS011;16852;51.446;6.528;2024-02-21T06:16:08;15.20;;;6.05;;
27857;SDS011;16852;51.446;6.528;2024-02-21T06:18:09;14.20;;;5.38;;
27857;SDS011;16852;51.446;6.528;2024-02-21T06:20:10;13.57;;;5.20;;
27857;SDS011;16852;51.446;6.528;2024-02-21T06:22:11;17.35;;;5.57;;
27857;SDS011;16852;51.446;6.528;2024-02-21T06:24:12;21.70;;;6.30;;
27857;SDS011;16852;51.446;6.528;2024-02-21T06:26:12;17.33;;;6.05;;
27857;SDS011;16852;51.446;6.528;2024-02-21T06:28:13;12.80;;;6.18;;
27857;SDS011;16852;51.446;6.528;2024-02-21T06:30:13;14.88;;;6.05;;
27857;SDS011;16852;51.446;6.528;2024-02-21T06:32:14;17.85;;;6.05;;
27857;SDS011;16852;51.446;6.528;2024-02-21T06:34:15;19.40;;;6.32;;
27857;SDS011;16852;51.446;6.528;2024-02-21T06:36:15;11.35;;;5.15;;
27857;SDS011;16852;51.446;6.528;2024-02-21T06:38:16;12.18;;;5.60;;
27857;SDS011;16852;51.446;6.528;2024-02-21T06:40:20;17.27;;;6.20;;
27857;SDS011;16852;51.446;6.528;2024-02-21T06:42:24;14.88;;;6.68;;
27857;SDS011;16852;51.446;6.528;2024-02-21T06:44:25;16.92;;;6.38;;
27857;SDS011;16852;51.446;6.528;2024-02-21T06:46:26;15.80;;;6.40;;
27857;SDS011;16852;51.446;6.528;2024-02-21T06:48:31;19.33;;;6.43;;
27857;SDS011;16852;51.446;6.528;2024-02-21T06:50:32;15.77;;;5.80;;
27857;SDS011;16852;51.446;6.528;2024-02-21T06:52:32;16.00;;;6.05;;
27857;SDS011;16852;51.446;6.528;2024-02-21T06:54:33;17.17;;;6.07;;
27857;SDS011;16852;51.446;6.528;2024-02-21T06:56:33;15.00;;;5.82;;
27857;SDS011;16852;51.446;6.528;2024-02-21T06:58:34;18.25;;;5.90;;
27857;SDS011;16852;51.446;6.528;2024-02-21T07:00:35;12.27;;;5.78;;
27857;SDS011;16852;51.446;6.528;2024-02-21T07:02:36;16.13;;;5.65;;
27857;SDS011;16852;51.446;6.528;2024-02-21T07:04:36;12.93;;;6.28;;
27857;SDS011;16852;51.446;6.528;2024-02-21T07:06:37;11.18;;;5.63;;
27857;SDS011;16852;51.446;6.528;2024-02-21T07:08:37;10.68;;;5.57;;
27857;SDS011;16852;51.446;6.528;2024-02-21T07:10:38;14.40;;;5.45;;
27857;SDS011;16852;51.446;6.528;2024-02-21T07:12:39;18.65;;;6.57;;
27857;SDS011;16852;51.446;6.528;2024-02-21T07:14:44;15.50;;;6.18;;
27857;SDS011;16852;51.446;6.528;2024-02-21T07:16:45;14.18;;;6.03;;
27857;SDS011;16852;51.446;6.528;2024-02-21T07:18:45;15.45;;;5.90;;
27857;SDS011;16852;51.446;6.528;2024-02-21T07:20:46;15.68;;;6.00;;
27857;SDS011;16852;51.446;6.528;2024-02-21T07:22:46;12.80;;;5.35;;
27857;SDS011;16852;51.446;6.528;2024-02-21T07:24:47;9.00;;;4.97;;
27857;SDS011;16852;51.446;6.528;2024-02-21T07:26:48;18.63;;;5.95;;
27857;SDS011;16852;51.446;6.528;2024-02-21T07:28:48;16.08;;;6.38;;
27857;SDS011;16852;51.446;6.528;2024-02-21T07:30:49;15.70;;;6.30;;
27857;SDS011;16852;51.446;6.528;2024-02-21T07:32:50;14.68;;;6.05;;
27857;SDS011;16852;51.446;6.528;2024-02-21T07:34:51;18.73;;;5.65;;
27857;SDS011;16852;51.446;6.528;2024-02-21T07:36:51;11.98;;;5.55;;
27857;SDS011;16852;51.446;6.528;2024-02-21T07:38:52;10.45;;;5.00;;
27857;SDS011;16852;51.446;6.528;2024-02-21T07:40:52;12.90;;;5.50;;
27857;SDS011;16852;51.446;6.528;2024-02-21T07:42:53;15.98;;;6.07;;
27857;SDS011;16852;51.446;6.528;2024-02-21T07:44:54;13.15;;;5.97;;
27857;SDS011;16852;51.446;6.528;2024-02-21T07:46:56;12.20;;;5.60;;
27857;SDS011;16852;51.446;6.528;2024-02-21T07:48:56;12.25;;;5.35;;
27857;SDS011;16852;51.446;6.528;2024-02-21T07:50:57;11.88;;;4.90;;
27857;SDS011;16852;51.446;6.528;2024-02-21T07:52:57;12.82;;;4.88;;
27857;SDS011;16852;51.446;6.528;2024-02-21T07:54:58;12.23;;;5.25;;
27857;SDS011;16852;51.446;6.528;2024-02-21T07:56:59;8.13;;;4.72;;
27857;SDS011;16852;51.446;6.528;2024-02-21T07:58:59;12.32;;;4.40;;
27857;SDS011;16852;51.446;6.528;2024-02-21T08:01:00;13.20;;;4.57;;
27857;SDS011;16852;51.446;6.528;2024-02-21T08:03:01;10.98;;;4.50;;
27857;SDS011;16852;51.446;6.528;2024-02-21T08:05:01;13.10;;;5.10;;
27857;SDS011;16852;51.446;6.528;2024-02-21T08:07:03;10.95;;;4.63;;
27857;SDS011;16852;51.446;6.528;2024-02-21T08:09:04;13.68;;;5.07;;
27857;SDS011;16852;51.446;6.528;2024-02-21T08:11:04;11.48;;;5.13;;
27857;SDS011;16852;51.446;6.528;2024-02-21T08:13:05;11.98;;;4.50;;
27857;SDS011;16852;51.446;6.528;2024-02-21T08:15:06;13.00;;;5.18;;
27857;SDS011;16852;51.446;6.528;2024-02-21T08:17:10;11.05;;;4.03;;
27857;SDS011;16852;51.446;6.528;2024-02-21T08:19:11;9.10;;;4.20;;
27857;SDS011;16852;51.446;6.528;2024-02-21T08:21:12;17.10;;;4.93;;
27857;SDS011;16852;51.446;6.528;2024-02-21T08:23:12;7.68;;;3.60;;
27857;SDS011;16852;51.446;6.528;2024-02-21T08:25:15;8.50;;;3.47;;
27857;SDS011;16852;51.446;6.528;2024-02-21T08:27:16;8.90;;;3.90;;
27857;SDS011;16852;51.446;6.528;2024-02-21T08:29:16;12.15;;;4.20;;
27857;SDS011;16852;51.446;6.528;2024-02-21T08:31:20;12.38;;;4.13;;
27857;SDS011;16852;51.446;6.528;2024-02-21T08:33:21;11.40;;;4.15;;
27857;SDS011;16852;51.446;6.528;2024-02-21T08:35:25;15.52;;;4.53;;
27857;SDS011;16852;51.446;6.528;2024-02-21T08:37:26;13.18;;;4.20;;
27857;SDS011;16852;51.446;6.528;2024-02-21T08:39:27;11.52;;;4.35;;
27857;SDS011;16852;51.446;6.528;2024-02-21T08:41:31;10.32;;;4.38;;
27857;SDS011;16852;51.446;6.528;2024-02-21T08:43:33;15.20;;;4.97;;
27857;SDS011;16852;51.446;6.528;2024-02-21T08:45:35;19.25;;;5.47;;
27857;SDS011;16852;51.446;6.528;2024-02-21T08:47:40;19.02;;;5.38;;
27857;SDS011;16852;51.446;6.528;2024-02-21T08:49:41;16.05;;;5.47;;
27857;SDS011;16852;51.446;6.528;2024-02-21T08:51:41;14.52;;;4.90;;
27857;SDS011;16852;51.446;6.528;2024-02-21T08:53:46;21.63;;;5.75;;
27857;SDS011;16852;51.446;6.528;2024-02-21T08:55:47;15.18;;;4.45;;
27857;SDS011;16852;51.446;6.528;2024-02-21T08:57:48;15.07;;;5.15;;
27857;SDS011;16852;51.446;6.528;2024-02-21T08:59:49;11.93;;;4.10;;
27857;SDS011;16852;51.446;6.528;2024-02-21T09:01:50;10.98;;;4.45;;
27857;SDS011;16852;51.446;6.528;2024-02-21T09:03:52;14.73;;;4.53;;
27857;SDS011;16852;51.446;6.528;2024-02-21T09:05:53;16.55;;;5.07;;
27857;SDS011;16852;51.446;6.528;2024-02-21T09:07:54;17.38;;;4.43;;
27857;SDS011;16852;51.446;6.528;2024-02-21T09:09:55;10.35;;;4.13;;
27857;SDS011;16852;51.446;6.528;2024-02-21T09:11:55;13.50;;;4.05;;
27857;SDS011;16852;51.446;6.528;2024-02-21T09:13:56;13.52;;;4.75;;
27857;SDS011;16852;51.446;6.528;2024-02-21T09:15:56;14.00;;;4.43;;
27857;SDS011;16852;51.446;6.528;2024-02-21T09:17:57;16.17;;;4.18;;
27857;SDS011;16852;51.446;6.528;2024-02-21T09:19:57;12.18;;;4.25;;
27857;SDS011;16852;51.446;6.528;2024-02-21T09:21:59;9.45;;;4.15;;
27857;SDS011;16852;51.446;6.528;2024-02-21T09:24:00;9.80;;;3.45;;
27857;SDS011;16852;51.446;6.528;2024-02-21T09:26:00;15.75;;;3.65;;
27857;SDS011;16852;51.446;6.528;2024-02-21T09:28:03;11.95;;;3.70;;
27857;SDS011;16852;51.446;6.528;2024-02-21T09:30:06;11.82;;;3.72;;
27857;SDS011;16852;51.446;6.528;2024-02-21T09:32:07;9.88;;;3.95;;
27857;SDS011;16852;51.446;6.528;2024-02-21T09:34:07;11.07;;;3.78;;
27857;SDS011;16852;51.446;6.528;2024-02-21T09:36:08;12.48;;;4.22;;
27857;SDS011;16852;51.446;6.528;2024-02-21T09:38:08;12.50;;;4.05;;
27857;SDS011;16852;51.446;6.528;2024-02-21T09:40:09;17.38;;;4.18;;
27857;SDS011;16852;51.446;6.528;2024-02-21T09:42:11;12.43;;;3.72;;
27857;SDS011;16852;51.446;6.528;2024-02-21T09:44:12;11.00;;;3.58;;
27857;SDS011;16852;51.446;6.528;2024-02-21T09:46:16;12.38;;;4.10;;
27857;SDS011;16852;51.446;6.528;2024-02-21T09:50:58;10.93;;;3.38;;
27857;SDS011;16852;51.446;6.528;2024-02-21T09:52:59;8.88;;;4.10;;
27857;SDS011;16852;51.446;6.528;2024-02-21T09:55:02;6.75;;;3.22;;
27857;SDS011;16852;51.446;6.528;2024-02-21T09:57:05;10.50;;;3.47;;
27857;SDS011;16852;51.446;6.528;2024-02-21T09:59:06;15.50;;;4.65;;
27857;SDS011;16852;51.446;6.528;2024-02-21T10:01:07;10.23;;;3.85;;
27857;SDS011;16852;51.446;6.528;2024-02-21T10:03:08;9.98;;;3.72;;
27857;SDS011;16852;51.446;6.528;2024-02-21T10:05:09;11.35;;;3.78;;
27857;SDS011;16852;51.446;6.528;2024-02-21T10:07:10;12.85;;;3.55;;
27857;SDS011;16852;51.446;6.528;2024-02-21T10:09:24;10.05;;;3.38;;
27857;SDS011;16852;51.446;6.528;2024-02-21T10:11:27;7.07;;;2.90;;
27857;SDS011;16852;51.446;6.528;2024-02-21T10:13:29;6.47;;;2.80;;
27857;SDS011;16852;51.446;6.528;2024-02-21T10:15:30;7.72;;;3.25;;
27857;SDS011;16852;51.446;6.528;2024-02-21T10:17:31;9.65;;;3.35;;
27857;SDS011;16852;51.446;6.528;2024-02-21T10:19:32;7.88;;;3.25;;
27857;SDS011;16852;51.446;6.528;2024-02-21T10:21:33;8.77;;;3.45;;
27857;SDS011;16852;51.446;6.528;2024-02-21T10:23:43;7.75;;;2.83;;
27857;SDS011;16852;51.446;6.528;2024-02-21T10:25:45;7.88;;;3.08;;
27857;SDS011;16852;51.446;6.528;2024-02-21T10:27:47;8.40;;;3.30;;
27857;SDS011;16852;51.446;6.528;2024-02-21T10:29:49;9.52;;;3.80;;
27857;SDS011;16852;51.446;6.528;2024-02-21T10:32:02;8.00;;;2.97;;
27857;SDS011;16852;51.446;6.528;2024-02-21T10:34:10;6.90;;;3.15;;
27857;SDS011;16852;51.446;6.528;2024-02-21T10:36:18;9.57;;;3.92;;
27857;SDS011;16852;51.446;6.528;2024-02-21T10:38:19;7.05;;;2.72;;
27857;SDS011;16852;51.446;6.528;2024-02-21T10:40:20;10.45;;;3.20;;
27857;SDS011;16852;51.446;6.528;2024-02-21T10:42:21;11.48;;;3.33;;
27857;SDS011;16852;51.446;6.528;2024-02-21T10:44:22;7.05;;;2.97;;
27857;SDS011;16852;51.446;6.528;2024-02-21T10:46:24;12.48;;;3.28;;
27857;SDS011;16852;51.446;6.528;2024-02-21T10:48:28;9.63;;;3.15;;
27857;SDS011;16852;51.446;6.528;2024-02-21T10:50:35;8.65;;;2.67;;
27857;SDS011;16852;51.446;6.528;2024-02-21T10:53:14;12.88;;;3.35;;
27857;SDS011;16852;51.446;6.528;2024-02-21T10:55:36;8.77;;;3.22;;
27857;SDS011;16852;51.446;6.528;2024-02-21T10:57:41;10.57;;;2.90;;
27857;SDS011;16852;51.446;6.528;2024-02-21T10:59:44;8.80;;;3.30;;
27857;SDS011;16852;51.446;6.528;2024-02-21T11:01:45;10.80;;;3.20;;
27857;SDS011;16852;51.446;6.528;2024-02-21T11:03:46;5.22;;;2.72;;
27857;SDS011;16852;51.446;6.528;2024-02-21T11:05:49;6.80;;;2.53;;
27857;SDS011;16852;51.446;6.528;2024-02-21T11:07:51;8.55;;;2.80;;
27857;SDS011;16852;51.446;6.528;2024-02-21T11:09:52;8.93;;;3.20;;
27857;SDS011;16852;51.446;6.528;2024-02-21T11:11:55;10.55;;;3.17;;
27857;SDS011;16852;51.446;6.528;2024-02-21T11:16:23;11.75;;;3.42;;
27857;SDS011;16852;51.446;6.528;2024-02-21T11:18:24;12.60;;;3.03;;
27857;SDS011;16852;51.446;6.528;2024-02-21T11:20:33;11.05;;;3.30;;
27857;SDS011;16852;51.446;6.528;2024-02-21T11:22:40;8.32;;;3.10;;
27857;SDS011;16852;51.446;6.528;2024-02-21T11:24:44;10.68;;;3.20;;
27857;SDS011;16852;51.446;6.528;2024-02-21T11:26:45;8.25;;;2.92;;
27857;SDS011;16852;51.446;6.528;2024-02-21T11:31:10;13.23;;;3.58;;
27857;SDS011;16852;51.446;6.528;2024-02-21T11:33:15;7.65;;;3.05;;
27857;SDS011;16852;51.446;6.528;2024-02-21T11:35:19;12.27;;;3.60;;
27857;SDS011;16852;51.446;6.528;2024-02-21T11:37:20;10.80;;;3.50;;
27857;SDS011;16852;51.446;6.528;2024-02-21T11:39:22;5.45;;;2.67;;
27857;SDS011;16852;51.446;6.528;2024-02-21T11:41:24;12.10;;;3.20;;
27857;SDS011;16852;51.446;6.528;2024-02-21T11:43:25;12.02;;;2.63;;
27857;SDS011;16852;51.446;6.528;2024-02-21T11:45:25;10.45;;;3.35;;
27857;SDS011;16852;51.446;6.528;2024-02-21T11:47:28;6.95;;;3.08;;
27857;SDS011;16852;51.446;6.528;2024-02-21T11:49:29;7.50;;;2.65;;
27857;SDS011;16852;51.446;6.528;2024-02-21T11:51:30;7.22;;;2.60;;
27857;SDS011;16852;51.446;6.528;2024-02-21T11:53:31;5.88;;;2.67;;
27857;SDS011;16852;51.446;6.528;2024-02-21T11:55:33;8.70;;;3.60;;
27857;SDS011;16852;51.446;6.528;2024-02-21T11:57:34;12.07;;;3.72;;
27857;SDS011;16852;51.446;6.528;2024-02-21T11:59:35;11.35;;;3.33;;
27857;SDS011;16852;51.446;6.528;2024-02-21T12:01:36;8.18;;;3.35;;
27857;SDS011;16852;51.446;6.528;2024-02-21T12:03:37;11.95;;;3.05;;
27857;SDS011;16852;51.446;6.528;2024-02-21T12:05:37;6.30;;;2.83;;
27857;SDS011;16852;51.446;6.528;2024-02-21T12:07:38;8.00;;;2.83;;
27857;SDS011;16852;51.446;6.528;2024-02-21T12:09:41;13.10;;;3.28;;
27857;SDS011;16852;51.446;6.528;2024-02-21T12:13:44;7.78;;;3.15;;
27857;SDS011;16852;51.446;6.528;2024-02-21T12:15:47;10.82;;;3.40;;